createdAt,value
2023-02-23T00:00:01.231Z,40.07
2023-02-23T00:03:06.390Z,35.80
2023-02-23T00:06:10.301Z,32.23
2023-02-23T00:09:23.070Z,34.93
2023-02-23T00:12:26.979Z,31.00
2023-02-23T00:15:30.502Z,35.27
2023-02-23T00:18:45.038Z,38.50
2023-02-23T00:21:48.171Z,40.57
2023-02-23T00:24:54.105Z,28.57
2023-02-23T00:27:57.277Z,38.40
2023-02-23T00:31:04.100Z,39.40
2023-02-23T00:34:15.073Z,40.03
2023-02-23T00:37:19.518Z,35.83
2023-02-23T00:40:27.336Z,43.60
2023-02-23T00:43:30.451Z,38.13
2023-02-23T00:46:33.457Z,34.70
2023-02-23T00:49:40.697Z,32.53
2023-02-23T00:52:45.258Z,35.03
2023-02-23T00:55:48.601Z,39.03
2023-02-23T00:58:51.911Z,32.73
2023-02-23T01:01:57.590Z,44.70
2023-02-23T01:05:02.029Z,42.73
2023-02-23T01:08:10.136Z,36.87
2023-02-23T01:11:19.434Z,40.27
2023-02-23T01:14:23.604Z,34.03
2023-02-23T01:17:27.563Z,34.20
2023-02-23T01:20:36.151Z,36.00
2023-02-23T01:23:41.644Z,35.70
2023-02-23T01:26:49.786Z,47.90
2023-02-23T01:29:52.860Z,42.57
2023-02-23T01:32:56.023Z,35.70
2023-02-23T01:36:01.627Z,42.50
2023-02-23T01:39:07.739Z,36.90
2023-02-23T01:42:14.588Z,35.13
2023-02-23T01:45:34.757Z,45.27
2023-02-23T01:48:41.494Z,41.50
2023-02-23T01:51:51.402Z,41.53
2023-02-23T01:54:56.908Z,39.57
2023-02-23T01:58:15.505Z,38.43
2023-02-23T02:01:19.781Z,41.80
2023-02-23T02:04:26.021Z,36.07
2023-02-23T02:07:35.137Z,37.00
2023-02-23T02:10:46.370Z,37.20
2023-02-23T02:13:50.683Z,44.60
2023-02-23T02:17:16.819Z,39.90
2023-02-23T02:21:15.999Z,36.43
2023-02-23T02:25:00.821Z,39.63
2023-02-23T02:28:54.732Z,41.27
2023-02-23T02:32:33.494Z,34.90
2023-02-23T02:36:19.869Z,38.87
2023-02-23T02:39:38.215Z,42.23
2023-02-23T02:42:58.262Z,37.67
2023-02-23T02:46:12.988Z,37.17
2023-02-23T02:49:26.682Z,34.17
2023-02-23T02:52:36.300Z,39.30
2023-02-23T02:55:43.880Z,35.30
2023-02-23T02:58:50.574Z,44.17
2023-02-23T03:02:12.581Z,38.67
2023-02-23T03:05:35.715Z,35.70
2023-02-23T03:09:03.682Z,37.30
2023-02-23T03:12:44.192Z,38.67
2023-02-23T03:16:22.075Z,45.47
2023-02-23T03:19:46.563Z,40.20
2023-02-23T03:23:16.517Z,34.33
2023-02-23T03:26:47.694Z,42.87
2023-02-23T03:30:17.667Z,37.47
2023-02-23T03:33:51.483Z,40.83
2023-02-23T03:37:25.211Z,39.23
2023-02-23T03:40:52.289Z,37.30
2023-02-23T03:44:17.145Z,44.03
2023-02-23T03:47:43.977Z,36.87
2023-02-23T03:51:13.339Z,42.73
2023-02-23T03:54:38.967Z,35.97
2023-02-23T03:58:02.560Z,42.90
2023-02-23T04:01:29.216Z,33.20
2023-02-23T04:04:53.473Z,33.77
2023-02-23T04:08:14.980Z,39.33
2023-02-23T04:11:44.661Z,44.30
2023-02-23T04:14:57.580Z,42.10
2023-02-23T04:18:01.268Z,37.93
2023-02-23T04:21:07.871Z,39.17
2023-02-23T04:24:12.058Z,37.57
2023-02-23T04:27:15.778Z,40.23
2023-02-23T04:30:20.542Z,44.83
2023-02-23T04:33:25.072Z,31.87
2023-02-23T04:36:29.468Z,42.70
2023-02-23T04:39:32.844Z,40.53
2023-02-23T04:42:36.546Z,39.37
2023-02-23T04:45:40.035Z,38.10
2023-02-23T04:48:43.189Z,42.33
2023-02-23T04:51:47.977Z,44.90
2023-02-23T04:54:51.230Z,39.70
2023-02-23T04:58:00.277Z,40.70
2023-02-23T05:01:09.678Z,37.70
2023-02-23T05:04:13.067Z,39.83
2023-02-23T05:07:17.829Z,40.67
2023-02-23T05:10:21.576Z,44.70
2023-02-23T05:13:24.939Z,35.43
2023-02-23T05:16:28.248Z,41.57
2023-02-23T05:19:31.544Z,36.50
2023-02-23T05:22:36.152Z,35.47
2023-02-23T05:25:39.771Z,38.30
2023-02-23T05:28:44.329Z,46.10
2023-02-23T05:31:48.651Z,39.23
2023-02-23T05:34:52.374Z,40.30
2023-02-23T05:37:58.807Z,45.17
2023-02-23T05:41:07.322Z,45.33
2023-02-23T05:44:11.188Z,39.50
2023-02-23T05:47:14.453Z,45.70
2023-02-23T05:50:17.873Z,41.10
2023-02-23T05:53:32.363Z,42.77
2023-02-23T05:56:35.621Z,38.00
2023-02-23T05:59:38.784Z,38.20
2023-02-23T06:02:42.540Z,38.93
2023-02-23T06:05:54.096Z,35.73
2023-02-23T06:08:59.509Z,41.13
2023-02-23T06:12:02.646Z,41.97
2023-02-23T06:15:07.397Z,47.67
2023-02-23T06:18:10.903Z,44.57
2023-02-23T06:21:15.806Z,37.90
2023-02-23T06:24:20.322Z,29.97
2023-02-23T06:27:23.346Z,40.17
2023-02-23T06:30:29.645Z,41.33
2023-02-23T06:33:32.761Z,36.43
2023-02-23T06:36:36.107Z,45.80
2023-02-23T06:39:40.565Z,38.33
2023-02-23T06:42:43.676Z,38.23
2023-02-23T06:45:47.880Z,39.10
2023-02-23T06:48:51.667Z,41.67
2023-02-23T06:51:55.323Z,43.70
2023-02-23T06:55:02.664Z,37.33
2023-02-23T06:58:07.180Z,39.40
2023-02-23T07:01:14.176Z,41.20
2023-02-23T07:04:17.385Z,44.37
2023-02-23T07:07:20.984Z,50.13
2023-02-23T07:10:28.130Z,43.87
2023-02-23T07:13:37.008Z,39.97
2023-02-23T07:16:40.573Z,35.00
2023-02-23T07:19:43.655Z,41.93
2023-02-23T07:22:47.350Z,51.57
2023-02-23T07:25:53.048Z,42.87
2023-02-23T07:28:58.370Z,43.17
2023-02-23T07:32:01.975Z,41.67
2023-02-23T07:35:06.907Z,39.37
2023-02-23T07:38:10.382Z,42.90
2023-02-23T07:41:18.270Z,40.37
2023-02-23T07:44:21.782Z,39.37
2023-02-23T07:47:30.880Z,37.67
2023-02-23T07:50:35.562Z,45.10
2023-02-23T07:53:41.419Z,44.83
2023-02-23T07:56:45.870Z,42.27
2023-02-23T07:59:49.336Z,37.63
2023-02-23T08:02:54.009Z,37.03
2023-02-23T08:05:57.489Z,41.57
2023-02-23T08:09:01.105Z,38.77
2023-02-23T08:12:06.342Z,38.10
2023-02-23T08:15:11.507Z,47.03
2023-02-23T08:18:14.692Z,40.37
2023-02-23T08:21:17.833Z,50.20
2023-02-23T08:24:20.968Z,40.37
2023-02-23T08:27:25.786Z,39.67
2023-02-23T08:30:28.884Z,48.20
2023-02-23T08:33:33.047Z,42.07
2023-02-23T08:36:36.397Z,52.60
2023-02-23T08:39:43.521Z,41.47
2023-02-23T08:42:52.504Z,49.40
2023-02-23T08:45:55.887Z,47.27
2023-02-23T08:48:59.548Z,46.20
2023-02-23T08:52:02.544Z,44.37
2023-02-23T08:55:06.604Z,51.53
2023-02-23T08:58:12.386Z,46.60
2023-02-23T09:01:19.316Z,39.37
2023-02-23T09:04:22.868Z,37.43
2023-02-23T09:07:26.853Z,38.37
2023-02-23T09:10:30.280Z,39.53
2023-02-23T09:13:36.511Z,44.63
2023-02-23T09:16:39.756Z,42.63
2023-02-23T09:19:42.921Z,44.53
2023-02-23T09:22:48.795Z,40.50
2023-02-23T09:25:52.000Z,40.70
2023-02-23T09:28:56.670Z,44.60
2023-02-23T09:32:00.023Z,42.50
2023-02-23T09:35:03.129Z,43.33
2023-02-23T09:38:08.332Z,37.53
2023-02-23T09:41:52.461Z,39.40
2023-02-23T09:45:20.112Z,37.80
2023-02-23T09:48:27.706Z,40.03
2023-02-23T09:51:35.929Z,38.67
2023-02-23T09:54:41.787Z,39.87
2023-02-23T09:57:49.247Z,43.37
2023-02-23T10:01:30.643Z,39.57
2023-02-23T10:04:40.892Z,36.93
2023-02-23T10:07:50.673Z,39.63
2023-02-23T10:11:08.390Z,40.10
2023-02-23T10:14:31.673Z,41.93
2023-02-23T10:17:46.508Z,38.93
2023-02-23T10:20:58.241Z,43.70
2023-02-23T10:24:05.664Z,42.20
2023-02-23T10:27:15.615Z,43.30
2023-02-23T10:30:23.090Z,40.90
2023-02-23T10:33:34.932Z,34.60
2023-02-23T10:36:41.215Z,33.10
2023-02-23T10:39:44.379Z,34.10
2023-02-23T10:42:47.726Z,39.70
2023-02-23T10:45:53.720Z,32.33
2023-02-23T10:49:00.488Z,44.10
2023-02-23T10:52:03.710Z,42.73
2023-02-23T10:55:09.693Z,43.20
2023-02-23T10:58:17.784Z,37.20
2023-02-23T11:01:41.914Z,48.23
2023-02-23T11:04:57.033Z,43.83
2023-02-23T11:08:29.201Z,44.90
2023-02-23T11:11:32.389Z,35.33
2023-02-23T11:14:35.442Z,41.70
2023-02-23T11:17:39.442Z,37.43
2023-02-23T11:20:44.828Z,32.90
2023-02-23T11:23:55.054Z,41.40
2023-02-23T11:27:03.739Z,35.67
2023-02-23T11:30:08.962Z,42.20
2023-02-23T11:33:18.759Z,42.83
2023-02-23T11:36:30.517Z,39.10
2023-02-23T11:39:34.445Z,34.80
2023-02-23T11:42:37.507Z,40.13
2023-02-23T11:45:48.454Z,39.10
2023-02-23T11:48:55.985Z,36.37
2023-02-23T11:52:00.548Z,43.03
2023-02-23T11:55:08.985Z,41.43
2023-02-23T11:58:25.095Z,38.70
2023-02-23T12:01:45.571Z,39.33
2023-02-23T12:04:48.830Z,42.67
2023-02-23T12:08:01.312Z,42.87
2023-02-23T12:11:09.329Z,36.70
2023-02-23T12:14:23.007Z,33.20
2023-02-23T12:17:29.068Z,40.93
2023-02-23T12:20:42.524Z,44.37
2023-02-23T12:23:53.007Z,37.40
2023-02-23T12:27:00.299Z,41.63
2023-02-23T12:30:13.412Z,36.90
2023-02-23T12:33:30.098Z,38.90
2023-02-23T12:36:40.275Z,37.97
2023-02-23T12:39:48.461Z,43.47
2023-02-23T12:43:01.489Z,42.97
2023-02-23T12:46:13.128Z,40.53
2023-02-23T12:49:26.616Z,36.20
2023-02-23T12:52:36.695Z,40.13
2023-02-23T12:55:58.245Z,42.80
2023-02-23T12:59:21.916Z,39.83
2023-02-23T13:02:31.513Z,35.37
2023-02-23T13:05:39.553Z,40.77
2023-02-23T13:09:01.745Z,40.83
2023-02-23T13:12:28.528Z,36.53
2023-02-23T13:15:48.196Z,40.60
2023-02-23T13:19:15.256Z,38.47
2023-02-23T13:22:32.555Z,36.23
2023-02-23T13:25:44.110Z,36.43
2023-02-23T13:28:58.684Z,35.50
2023-02-23T13:32:04.892Z,34.10
2023-02-23T13:35:15.763Z,35.93
2023-02-23T13:38:32.177Z,35.13
2023-02-23T13:41:40.387Z,33.17
2023-02-23T13:44:52.374Z,36.30
2023-02-23T13:48:02.077Z,39.33
2023-02-23T13:51:15.892Z,39.80
2023-02-23T13:54:35.761Z,39.97
2023-02-23T13:57:46.158Z,41.10
2023-02-23T14:01:06.017Z,43.53
2023-02-23T14:04:17.290Z,34.93
2023-02-23T14:07:28.117Z,37.97
2023-02-23T14:10:38.643Z,43.33
2023-02-23T14:13:59.414Z,40.27
2023-02-23T14:17:57.816Z,38.73
2023-02-23T14:21:17.892Z,37.37
2023-02-23T14:24:24.424Z,42.27
2023-02-23T14:27:41.908Z,40.30
2023-02-23T14:30:53.065Z,44.07
2023-02-23T14:34:08.064Z,45.40
2023-02-23T14:37:21.933Z,45.57
2023-02-23T14:40:57.147Z,43.23
2023-02-23T14:44:12.283Z,43.30
2023-02-23T14:47:50.624Z,41.57
2023-02-23T14:55:30.926Z,43.40
2023-02-23T14:58:35.157Z,46.57
2023-02-23T15:01:40.982Z,50.17
2023-02-23T15:04:44.091Z,53.17
2023-02-23T15:07:51.833Z,55.30
2023-02-23T15:11:03.346Z,53.80
2023-02-23T15:14:10.529Z,56.83
2023-02-23T15:17:22.978Z,56.60
2023-02-23T15:23:39.830Z,58.10
2023-02-23T15:26:43.763Z,61.00
2023-02-23T15:29:47.569Z,56.30
2023-02-23T15:33:00.704Z,57.17
2023-02-23T15:36:09.802Z,62.93
2023-02-23T15:39:19.071Z,53.37
2023-02-23T15:42:28.039Z,69.10
2023-02-23T15:45:40.222Z,60.80
2023-02-23T15:48:48.525Z,63.90
2023-02-23T15:51:59.340Z,56.57
2023-02-23T15:55:10.119Z,65.50
2023-02-23T15:58:21.690Z,59.30
2023-02-23T16:01:28.133Z,60.50
2023-02-23T16:04:33.945Z,64.67
2023-02-23T16:07:43.344Z,60.70
2023-02-23T16:10:49.269Z,61.90
2023-02-23T16:13:55.051Z,60.07
2023-02-23T16:17:10.958Z,61.97
2023-02-23T16:20:19.482Z,61.60
2023-02-23T16:23:34.335Z,65.63
2023-02-23T16:26:47.237Z,67.30
2023-02-23T16:30:00.177Z,64.13
2023-02-23T16:33:08.396Z,67.40
2023-02-23T16:36:21.297Z,64.90
2023-02-23T16:39:29.595Z,69.37
2023-02-23T16:42:40.322Z,64.87
2023-02-23T16:45:44.924Z,72.63
2023-02-23T16:48:48.670Z,78.67
2023-02-23T16:51:52.200Z,72.47
2023-02-23T16:54:57.516Z,81.53
2023-02-23T16:58:04.868Z,78.70
2023-02-23T17:01:10.585Z,86.43
2023-02-23T17:04:16.230Z,84.23
2023-02-23T17:07:24.123Z,95.57
2023-02-23T17:10:31.963Z,95.67
2023-02-23T17:13:37.038Z,103.57
2023-02-23T17:16:40.217Z,103.37
2023-02-23T17:19:44.128Z,94.00
2023-02-23T17:34:09.773Z,100.93
2023-02-23T17:37:12.833Z,103.47
2023-02-23T17:40:18.946Z,101.13
2023-02-23T17:43:23.239Z,100.27
2023-02-23T17:46:29.257Z,102.87
2023-02-23T17:49:33.917Z,97.20
2023-02-23T17:52:37.119Z,105.33
2023-02-23T17:55:40.362Z,111.27
2023-02-23T17:58:43.514Z,108.93
2023-02-23T18:01:48.626Z,111.93
2023-02-23T18:04:54.140Z,112.87
2023-02-23T18:08:01.871Z,106.03
2023-02-23T18:11:05.425Z,120.73
2023-02-23T18:14:09.541Z,109.23
2023-02-23T18:17:13.709Z,119.07
2023-02-23T18:20:18.769Z,114.33
2023-02-23T18:23:23.038Z,114.60
2023-02-23T18:26:27.063Z,125.70
2023-02-23T18:29:34.450Z,118.03
2023-02-23T18:32:37.767Z,112.57
2023-02-23T18:35:45.073Z,110.70
2023-02-23T18:38:48.584Z,119.80
2023-02-23T18:41:51.969Z,111.53
2023-02-23T18:44:55.041Z,112.60
2023-02-23T18:47:59.943Z,113.13
2023-02-23T18:51:05.861Z,115.47
2023-02-23T18:54:11.719Z,113.27
2023-02-23T18:57:18.303Z,113.23
2023-02-23T19:00:22.689Z,117.33
2023-02-23T19:03:25.894Z,117.40
2023-02-23T19:06:33.036Z,114.57
2023-02-23T19:09:47.153Z,93.40
2023-02-23T19:12:50.422Z,101.80
2023-02-23T19:16:01.611Z,103.73
2023-02-23T19:19:07.440Z,103.17
2023-02-23T19:22:19.171Z,109.67
2023-02-23T19:25:28.459Z,112.73
2023-02-23T19:28:32.560Z,110.50
2023-02-23T19:31:42.688Z,105.50
2023-02-23T19:34:48.267Z,100.43
2023-02-23T19:37:57.534Z,108.67
2023-02-23T19:41:00.791Z,105.07
2023-02-23T19:44:04.470Z,106.90
2023-02-23T19:47:07.525Z,108.20
2023-02-23T19:50:18.843Z,99.17
2023-02-23T19:53:28.056Z,94.33
2023-02-23T19:56:31.309Z,95.67
2023-02-23T19:59:34.389Z,84.10
2023-02-23T20:02:42.482Z,84.67
2023-02-23T20:05:45.678Z,81.60
2023-02-23T20:08:55.194Z,82.73
2023-02-23T20:11:58.940Z,72.30
2023-02-23T20:15:05.210Z,89.77
2023-02-23T20:18:09.023Z,66.50
2023-02-23T20:21:16.455Z,58.17
2023-02-23T20:24:21.683Z,60.70
2023-02-23T20:27:24.985Z,58.80
2023-02-23T20:30:32.209Z,62.97
2023-02-23T20:33:38.766Z,62.27
2023-02-23T20:36:42.076Z,75.17
2023-02-23T20:39:47.441Z,71.77
2023-02-23T20:42:52.560Z,72.63
2023-02-23T20:46:00.796Z,77.93
2023-02-23T20:49:05.458Z,82.17
2023-02-23T20:52:08.684Z,81.03
2023-02-23T20:55:18.410Z,80.67
2023-02-23T20:58:25.989Z,72.60
2023-02-23T21:01:29.684Z,79.23
2023-02-23T21:04:35.281Z,86.10
2023-02-23T21:07:38.974Z,89.90
2023-02-23T21:10:43.506Z,94.80
2023-02-23T21:13:47.241Z,96.20
2023-02-23T21:16:50.390Z,96.27
2023-02-23T21:19:53.445Z,88.53
2023-02-23T21:22:59.129Z,95.93
2023-02-23T21:26:14.790Z,98.50
2023-02-23T21:29:23.814Z,89.70
2023-02-23T21:32:31.122Z,92.57
2023-02-23T21:35:38.330Z,91.27
2023-02-23T21:38:45.863Z,90.43
2023-02-23T21:41:50.401Z,92.90
2023-02-23T21:44:56.328Z,94.33
2023-02-23T21:48:01.496Z,98.10
2023-02-23T21:51:09.257Z,97.80
2023-02-23T21:54:21.515Z,83.60
2023-02-23T21:57:30.607Z,93.37
2023-02-23T22:00:35.753Z,91.23
2023-02-23T22:03:43.462Z,93.17
2023-02-23T22:06:46.580Z,99.53
2023-02-23T22:09:51.671Z,108.47
2023-02-23T22:12:56.928Z,102.67
2023-02-23T22:16:00.708Z,103.97
2023-02-23T22:19:05.077Z,97.37
2023-02-23T22:22:11.351Z,100.10
2023-02-23T22:25:17.355Z,112.63
2023-02-23T22:28:25.943Z,95.20
2023-02-23T22:31:32.553Z,97.60
2023-02-23T22:34:36.358Z,91.17
2023-02-23T22:37:39.715Z,103.30
2023-02-23T22:40:47.463Z,93.20
2023-02-23T22:43:55.686Z,88.20
2023-02-23T22:47:00.801Z,88.50
2023-02-23T22:50:15.104Z,90.53
2023-02-23T22:53:19.293Z,92.43
2023-02-23T22:56:25.039Z,90.57
2023-02-23T22:59:30.551Z,86.77
2023-02-23T23:02:36.425Z,89.80
2023-02-23T23:05:41.741Z,95.33
2023-02-23T23:08:49.382Z,91.43
2023-02-23T23:11:52.647Z,83.60
2023-02-23T23:15:01.357Z,90.00
2023-02-23T23:18:13.941Z,78.33
2023-02-23T23:21:21.894Z,86.70
2023-02-23T23:24:26.204Z,83.87
2023-02-23T23:27:33.094Z,88.53
2023-02-23T23:30:41.096Z,79.80
2023-02-23T23:33:51.257Z,81.57
2023-02-23T23:36:55.498Z,80.80
2023-02-23T23:40:00.290Z,76.73
2023-02-23T23:43:07.468Z,82.13
2023-02-23T23:46:14.941Z,84.93
2023-02-23T23:49:21.133Z,73.83
2023-02-23T23:52:25.267Z,73.17
2023-02-23T23:55:31.709Z,77.73
2023-02-23T23:58:35.065Z,68.60
